Terminal Aerodrome Forecast
Issued by NWS

Home | Current Version | Previous Version | Text Only | Print | Product List | Glossary On
Versions: 1 2 3 4 5 6 7 8 9 10 11 12
941
FTUS46 KSEW 031720
TAFPAE
TAF
KPAE 031720Z 0318/0418 17007KT P6SM SCT120 BKN200
     FM032200 27007KT P6SM SCT060 BKN120
     FM040300 30010KT P6SM VCSH BKN040 OVC080
     FM041200 VRB04KT P6SM -SHRA BKN015 OVC035
     FM041700 VRB04KT P6SM VCSH BKN020 OVC040=

USA.gov is the U.S. government's official web portal to all federal, state and local government web resources and services.